Time;durP1;ratioP1;P1;durP2;ratioP2;P2;SDS_P1;SDS_P2;PMS_P1;PMS_P2;Temp;Humidity;BMP_temperature;BMP_pressure;BME280_temperature;BME280_humidity;BME280_pressure;Samples;Min_cycle;Max_cycle;Signal;HPM_P1;HPM_P2
2022/06/16 00:00:11;;;;;;;;;;;;;;;-149.78;100.00;50033.38;5104575;28;19923;-72
2022/06/16 00:02:41;;;;;;;;;;;;;;;-149.78;100.00;50041.19;5104625;28;19976;-71
2022/06/16 00:05:07;;;;;;;;;;;;;;;-149.78;100.00;50072.50;5105621;28;19920;-73
2022/06/16 00:07:32;;;;;;;;;;;;;;;-149.78;100.00;50052.94;5104547;28;20378;-71
2022/06/16 00:09:58;;;;;;;;;;;;;;;-149.78;100.00;50088.13;5105808;28;19962;-72
2022/06/16 00:12:24;;;;;;;;;;;;;;;-149.78;100.00;50064.66;5104917;28;19977;-71
2022/06/16 00:14:50;;;;;;;;;;;;;;;-149.78;100.00;50049.03;5106452;28;20027;-71
2022/06/16 00:17:15;;;;;;;;;;;;;;;-149.78;100.00;50080.31;5102442;28;19927;-71
2022/06/16 00:19:41;;;;;;;;;;;;;;;-149.78;100.00;50054.88;5104517;28;19924;-72
2022/06/16 00:22:07;;;;;;;;;;;;;;;-149.78;100.00;50033.38;5101090;28;20018;-73
2022/06/16 00:24:33;;;;;;;;;;;;;;;-149.78;100.00;50082.25;5103053;28;20022;-73
2022/06/16 00:26:59;;;;;;;;;;;;;;;-149.78;100.00;50050.97;5104473;28;19959;-73
2022/06/16 00:29:25;;;;;;;;;;;;;;;-149.78;100.00;50049.03;5105292;28;19923;-72
2022/06/16 00:31:50;;;;;;;;;;;;;;;-149.78;100.00;50045.09;5102929;28;19931;-73
2022/06/16 00:34:16;;;;;;;;;;;;;;;-149.78;100.00;50041.19;5103684;28;19931;-72
2022/06/16 00:36:41;;;;;;;;;;;;;;;-149.78;100.00;50064.66;5105536;28;19934;-73
2022/06/16 00:39:07;;;;;;;;;;;;;;;-149.78;100.00;50052.94;5104500;28;20030;-73
2022/06/16 00:41:32;;;;;;;;;;;;;;;-149.78;100.00;50084.22;5093663;28;20264;-73
2022/06/16 00:44:02;;;;;;;;;;;;;;;-149.78;100.00;50049.03;5076348;28;19932;-73
2022/06/16 00:46:30;;;;;;;;;;;;;;;-149.78;100.00;50080.31;5081917;28;20372;-73
2022/06/16 00:48:58;;;;;;;;;;;;;;;-149.78;100.00;50017.72;5085932;28;19916;-72
2022/06/16 00:51:39;;;;;;;;;;;;;;;-149.78;100.00;50052.94;5082309;28;19925;-72
2022/06/16 00:54:08;;;;;;;;;;;;;;;-149.78;100.00;50050.97;5078138;28;19920;-72
2022/06/16 00:56:34;;;;;;;;;;;;;;;-149.78;100.00;50092.03;5092902;28;19927;-72
2022/06/16 00:59:02;;;;;;;;;;;;;;;-149.78;100.00;50056.84;5094171;28;19917;-73
2022/06/16 01:01:28;;;;;;;;;;;;;;;-149.78;100.00;50049.03;5101033;28;19930;-72
2022/06/16 01:06:53;;;;;;;;;;;;;;;-149.78;100.00;50050.97;5084886;28;19920;-72
2022/06/16 01:09:21;;;;;;;;;;;;;;;-149.78;100.00;50064.66;5104274;28;19919;-73
2022/06/16 01:14:57;;;;;;;;;;;;;;;-149.78;100.00;50080.31;5105802;28;19928;-72
2022/06/16 01:17:23;;;;;;;;;;;;;;;-149.78;100.00;50095.94;5100732;28;20340;-72
2022/06/16 01:20:04;;;;;;;;;;;;;;;-149.78;100.00;50105.72;5103385;28;19930;-72
2022/06/16 01:23:05;;;;;;;;;;;;;;;-149.78;100.00;50088.13;5103903;28;19920;-72
2022/06/16 01:25:34;;;;;;;;;;;;;;;-149.78;100.00;50095.94;5081143;28;19919;-72
2022/06/16 01:27:59;;;;;;;;;;;;;;;-149.78;100.00;50090.09;5096880;28;19927;-72
2022/06/16 01:30:43;;;;;;;;;;;;;;;-149.78;100.00;50064.66;5103343;28;19923;-72
2022/06/16 01:33:12;;;;;;;;;;;;;;;-149.78;100.00;50056.84;5099969;28;19997;-72
2022/06/16 01:35:40;;;;;;;;;;;;;;;-149.78;100.00;50076.41;5101060;28;20049;-72
2022/06/16 01:38:14;;;;;;;;;;;;;;;-149.78;100.00;50086.19;5103711;28;20282;-72
2022/06/16 01:40:49;;;;;;;;;;;;;;;-149.78;100.00;50031.41;5099876;28;20008;-72
2022/06/16 01:43:18;;;;;;;;;;;;;;;-149.78;100.00;50049.03;5103471;28;19924;-72
2022/06/16 01:45:53;;;;;;;;;;;;;;;-149.78;100.00;50060.75;5100371;28;19923;-72
2022/06/16 01:48:20;;;;;;;;;;;;;;;-149.78;100.00;50060.75;5102422;28;19924;-72
2022/06/16 01:50:51;;;;;;;;;;;;;;;-149.78;100.00;50039.25;5101867;28;19943;-72
2022/06/16 01:53:21;;;;;;;;;;;;;;;-149.78;100.00;50088.13;5102590;28;19976;-72
2022/06/16 01:55:50;;;;;;;;;;;;;;;-149.78;100.00;50064.66;5101113;28;19928;-73
2022/06/16 01:58:27;;;;;;;;;;;;;;;-149.78;100.00;50095.94;5101082;28;19998;-71
2022/06/16 02:00:54;;;;;;;;;;;;;;;-149.78;100.00;50072.50;5102889;28;19916;-71
2022/06/16 02:03:29;;;;;;;;;;;;;;;-149.78;100.00;50084.22;5102722;28;20282;-70
2022/06/16 02:05:56;;;;;;;;;;;;;;;-149.78;100.00;50037.28;5101791;28;19915;-73
2022/06/16 02:08:25;;;;;;;;;;;;;;;-149.78;100.00;50099.88;5103024;28;19920;-73
2022/06/16 02:10:55;;;;;;;;;;;;;;;-149.78;100.00;50084.22;5096971;28;19923;-73
2022/06/16 02:13:24;;;;;;;;;;;;;;;-149.78;100.00;50033.38;5102186;28;20282;-72
2022/06/16 02:15:58;;;;;;;;;;;;;;;-149.78;100.00;50070.53;5099356;28;20350;-73
2022/06/16 02:18:25;;;;;;;;;;;;;;;-149.78;100.00;50092.03;5098769;28;19932;-72
2022/06/16 02:20:52;;;;;;;;;;;;;;;-149.78;100.00;50025.56;5103528;28;19926;-72
2022/06/16 02:23:17;;;;;;;;;;;;;;;-149.78;100.00;50047.06;5104191;28;19916;-72
2022/06/16 02:25:44;;;;;;;;;;;;;;;-149.78;100.00;50115.50;5104019;28;19964;-72
2022/06/16 02:28:12;;;;;;;;;;;;;;;-149.78;100.00;50084.22;5101139;28;20321;-72
2022/06/16 02:30:43;;;;;;;;;;;;;;;-149.78;100.00;50072.50;5101549;28;19924;-72
2022/06/16 02:33:16;;;;;;;;;;;;;;;-149.78;100.00;50095.94;5099634;28;19957;-72
2022/06/16 02:35:48;;;;;;;;;;;;;;;-149.78;100.00;50076.41;5096096;28;20388;-72
2022/06/16 02:38:32;;;;;;;;;;;;;;;-149.78;100.00;50095.94;5101620;28;20015;-72
2022/06/16 02:41:05;;;;;;;;;;;;;;;-149.78;100.00;50088.13;5099312;28;19934;-72
2022/06/16 02:43:49;;;;;;;;;;;;;;;-149.78;100.00;50094.00;5100101;28;19938;-72
2022/06/16 02:46:17;;;;;;;;;;;;;;;-149.78;100.00;50092.03;5101770;28;19967;-72
2022/06/16 02:48:42;;;;;;;;;;;;;;;-149.78;100.00;50074.44;5101764;28;19928;-72
2022/06/16 02:51:16;;;;;;;;;;;;;;;-149.78;100.00;50092.03;5102718;28;19965;-72
2022/06/16 02:53:45;;;;;;;;;;;;;;;-149.78;100.00;50090.09;5099493;28;20290;-72
2022/06/16 02:56:34;;;;;;;;;;;;;;;-149.78;100.00;50062.72;5099571;28;20013;-70
2022/06/16 02:59:03;;;;;;;;;;;;;;;-149.78;100.00;50090.09;5097860;28;20027;-70
2022/06/16 03:01:31;;;;;;;;;;;;;;;-149.78;100.00;50090.09;5101060;28;19951;-71
2022/06/16 03:04:17;;;;;;;;;;;;;;;-149.78;100.00;50107.69;5080434;28;19923;-70
2022/06/16 03:06:44;;;;;;;;;;;;;;;-149.78;100.00;50137.03;5103367;28;19935;-70
2022/06/16 03:09:09;;;;;;;;;;;;;;;-149.78;100.00;50101.81;5101031;28;19912;-70
2022/06/16 03:11:35;;;;;;;;;;;;;;;-149.78;100.00;50103.78;5099889;28;19970;-71
2022/06/16 03:14:01;;;;;;;;;;;;;;;-149.78;100.00;50097.91;5101483;28;20390;-70
2022/06/16 03:16:27;;;;;;;;;;;;;;;-149.78;100.00;50119.41;5102508;28;19924;-70
2022/06/16 03:18:52;;;;;;;;;;;;;;;-149.78;100.00;50119.41;5100675;28;19957;-70
2022/06/16 03:21:18;;;;;;;;;;;;;;;-149.78;100.00;50099.88;5100799;28;19924;-70
2022/06/16 03:23:44;;;;;;;;;;;;;;;-149.78;100.00;50119.41;5103066;28;19928;-70
2022/06/16 03:26:10;;;;;;;;;;;;;;;-149.78;100.00;50142.88;5094565;28;19924;-70
2022/06/16 03:28:35;;;;;;;;;;;;;;;-149.78;100.00;50107.69;5100470;28;19968;-71
2022/06/16 03:31:01;;;;;;;;;;;;;;;-149.78;100.00;50099.88;5099418;28;19927;-70
2022/06/16 03:33:26;;;;;;;;;;;;;;;-149.78;100.00;50150.72;5100619;28;19923;-70
2022/06/16 03:35:52;;;;;;;;;;;;;;;-149.78;100.00;50115.50;5100419;28;19928;-70
2022/06/16 03:41:02;;;;;;;;;;;;;;;-149.78;100.00;50115.50;5100867;28;20014;-70
2022/06/16 03:43:28;;;;;;;;;;;;;;;-149.78;100.00;50125.28;5097573;28;19968;-70
2022/06/16 03:45:54;;;;;;;;;;;;;;;-149.78;100.00;50095.94;5099444;28;19916;-70
2022/06/16 03:48:20;;;;;;;;;;;;;;;-149.78;100.00;50086.19;5101339;28;19927;-70
2022/06/16 03:50:46;;;;;;;;;;;;;;;-149.78;100.00;50103.78;5100293;28;20283;-70
2022/06/16 03:53:11;;;;;;;;;;;;;;;-149.78;100.00;50127.25;5102378;28;19927;-70
2022/06/16 03:55:37;;;;;;;;;;;;;;;-149.78;100.00;50125.28;5099094;28;19928;-71
2022/06/16 03:58:02;;;;;;;;;;;;;;;-149.78;100.00;50115.50;5099679;28;20402;-70
2022/06/16 04:00:29;;;;;;;;;;;;;;;-149.78;100.00;50166.34;5100367;28;19919;-70
2022/06/16 04:05:39;;;;;;;;;;;;;;;-149.78;100.00;50148.75;5102396;28;20366;-70
2022/06/16 04:08:04;;;;;;;;;;;;;;;-149.78;100.00;50127.25;5101498;28;19919;-70
2022/06/16 04:10:30;;;;;;;;;;;;;;;-149.78;100.00;50166.34;5101096;28;19927;-70
2022/06/16 04:12:55;;;;;;;;;;;;;;;-149.78;100.00;50092.03;5101135;28;20406;-70
2022/06/16 04:15:20;;;;;;;;;;;;;;;-149.78;100.00;50092.03;5100147;28;20018;-70
2022/06/16 04:17:46;;;;;;;;;;;;;;;-149.78;100.00;50131.16;5099877;28;19946;-71
2022/06/16 04:20:12;;;;;;;;;;;;;;;-149.78;100.00;50115.50;5099018;28;19916;-71
2022/06/16 04:22:38;;;;;;;;;;;;;;;-149.78;100.00;50113.56;5100999;28;19923;-70
2022/06/16 04:25:04;;;;;;;;;;;;;;;-149.78;100.00;50131.16;5100403;28;20038;-70
2022/06/16 04:27:30;;;;;;;;;;;;;;;-149.78;100.00;50107.69;5100239;28;19919;-70
2022/06/16 04:29:55;;;;;;;;;;;;;;;-149.78;100.00;50144.84;5099872;28;20350;-70
2022/06/16 04:32:21;;;;;;;;;;;;;;;-149.78;100.00;50131.16;5104151;28;19916;-70
2022/06/16 04:34:46;;;;;;;;;;;;;;;-149.78;100.00;50107.69;5101551;28;19932;-70
2022/06/16 04:37:12;;;;;;;;;;;;;;;-149.78;100.00;50135.06;5104678;28;20406;-70
2022/06/16 04:39:38;;;;;;;;;;;;;;;-149.78;100.00;50123.34;5104184;28;19919;-70
2022/06/16 04:42:04;;;;;;;;;;;;;;;-149.78;100.00;50111.59;5104477;28;19920;-70
2022/06/16 04:44:31;;;;;;;;;;;;;;;-149.78;100.00;50103.78;5101331;28;20266;-70
2022/06/16 04:46:57;;;;;;;;;;;;;;;-149.78;100.00;50105.72;5103886;28;19928;-71
2022/06/16 04:49:22;;;;;;;;;;;;;;;-149.78;100.00;50072.50;5101720;28;20725;-70
2022/06/16 04:51:48;;;;;;;;;;;;;;;-149.78;100.00;50127.25;5104189;28;19955;-71
2022/06/16 04:54:14;;;;;;;;;;;;;;;-149.78;100.00;50092.03;5102788;28;19927;-71
2022/06/16 04:56:39;;;;;;;;;;;;;;;-149.78;100.00;50082.25;5103803;28;20612;-70
2022/06/16 04:59:05;;;;;;;;;;;;;;;-149.78;100.00;50113.56;5100505;28;19929;-70
2022/06/16 05:01:30;;;;;;;;;;;;;;;-149.78;100.00;50084.22;5100414;28;20026;-70
2022/06/16 05:03:56;;;;;;;;;;;;;;;-149.78;100.00;50082.25;5101567;28;19924;-70
2022/06/16 05:06:22;;;;;;;;;;;;;;;-149.78;100.00;50060.75;5095862;28;19943;-71
2022/06/16 05:08:48;;;;;;;;;;;;;;;-149.78;100.00;50103.78;5102318;28;20014;-71
2022/06/16 05:11:14;;;;;;;;;;;;;;;-149.78;100.00;50064.66;5097866;28;19921;-70
2022/06/16 05:13:39;;;;;;;;;;;;;;;-149.78;100.00;50076.41;5100139;28;19923;-71
2022/06/16 05:16:05;;;;;;;;;;;;;;;-149.78;100.00;50095.94;5100707;28;19935;-71
2022/06/16 05:18:31;;;;;;;;;;;;;;;-149.78;100.00;50092.03;5100814;28;19923;-71
2022/06/16 05:21:06;;;;;;;;;;;;;;;-149.78;100.00;50107.69;5100663;28;19923;-71
2022/06/16 05:23:32;;;;;;;;;;;;;;;-149.78;100.00;50099.88;5102615;28;19924;-70
2022/06/16 05:25:58;;;;;;;;;;;;;;;-149.78;100.00;50064.66;5103738;28;19932;-71
2022/06/16 05:28:23;;;;;;;;;;;;;;;-149.78;100.00;50064.66;5098512;28;19928;-71
2022/06/16 05:30:52;;;;;;;;;;;;;;;-149.78;100.00;50056.84;5099541;28;20235;-70
2022/06/16 05:33:17;;;;;;;;;;;;;;;-149.78;100.00;50074.44;5098015;28;19920;-70
2022/06/16 05:35:53;;;;;;;;;;;;;;;-149.78;100.00;50009.91;5099579;28;19930;-70
2022/06/16 05:38:19;;;;;;;;;;;;;;;-149.78;100.00;50072.50;5102354;28;19959;-71
2022/06/16 05:40:45;;;;;;;;;;;;;;;-149.78;100.00;50060.75;5100551;28;19970;-71
2022/06/16 05:43:11;;;;;;;;;;;;;;;-149.78;100.00;50045.09;5099597;28;19924;-71
2022/06/16 05:45:36;;;;;;;;;;;;;;;-149.78;100.00;50095.94;5097655;28;19935;-70
2022/06/16 05:48:02;;;;;;;;;;;;;;;-149.78;100.00;50047.06;5096512;28;19950;-71
2022/06/16 05:50:27;;;;;;;;;;;;;;;-149.78;100.00;50072.50;5079861;28;19930;-71
2022/06/16 05:52:53;;;;;;;;;;;;;;;-149.78;100.00;50076.41;5096353;28;19977;-71
2022/06/16 05:55:19;;;;;;;;;;;;;;;-149.78;100.00;50084.22;5095576;28;20052;-71
2022/06/16 05:57:46;;;;;;;;;;;;;;;-149.78;100.00;50064.66;5094150;28;20495;-71
2022/06/16 06:00:12;;;;;;;;;;;;;;;-149.78;100.00;50056.84;5091235;28;19927;-71
2022/06/16 06:02:37;;;;;;;;;;;;;;;-149.78;100.00;50033.38;5095170;28;19923;-71
2022/06/16 06:05:04;;;;;;;;;;;;;;;-149.78;100.00;50047.06;5089348;28;19916;-70
2022/06/16 06:16:25;;;;;;;;;;;;;;;-149.78;100.00;50025.56;5081667;28;20004;-70
2022/06/16 06:18:28;;;;;;;;;;;;;;;-149.78;100.00;50056.84;5080387;28;20272;-70
2022/06/16 06:20:54;;;;;;;;;;;;;;;-149.78;100.00;50029.47;5080457;28;19954;-71
2022/06/16 06:23:20;;;;;;;;;;;;;;;-149.78;100.00;50084.22;5085103;28;19929;-71
2022/06/16 06:25:46;;;;;;;;;;;;;;;-149.78;100.00;50021.63;5085297;28;20029;-71
2022/06/16 06:28:15;;;;;;;;;;;;;;;-149.78;100.00;50009.91;5082732;28;20390;-70
2022/06/16 06:30:41;;;;;;;;;;;;;;;-149.78;100.00;50006.00;5082935;28;19916;-70
2022/06/16 06:33:06;;;;;;;;;;;;;;;-149.78;100.00;50045.09;5080254;28;19935;-71
2022/06/16 06:35:32;;;;;;;;;;;;;;;-149.78;100.00;50035.34;5074821;28;19952;-71
2022/06/16 06:37:58;;;;;;;;;;;;;;;-149.78;100.00;49990.34;5078647;28;19919;-71
2022/06/16 06:40:42;;;;;;;;;;;;;;;-149.78;100.00;50029.47;5082456;28;19916;-71
2022/06/16 06:43:07;;;;;;;;;;;;;;;-149.78;100.00;50002.09;5074406;28;19970;-72
2022/06/16 06:45:34;;;;;;;;;;;;;;;-149.78;100.00;49980.56;5075671;28;19960;-70
2022/06/16 06:48:01;;;;;;;;;;;;;;;-149.78;95.28;50006.00;5076945;28;19954;-71
2022/06/16 06:50:32;;;;;;;;;;;;;;;-149.78;83.97;49970.78;5077099;28;19926;-70
2022/06/16 06:52:58;;;;;;;;;;;;;;;-149.78;73.73;49953.19;5065213;28;19928;-70
2022/06/16 06:55:24;;;;;;;;;;;;;;;-149.78;68.63;49982.53;5073660;28;20359;-71
2022/06/16 06:57:52;;;;;;;;;;;;;;;-149.78;64.99;49990.34;5083161;28;19923;-71
2022/06/16 07:00:18;;;;;;;;;;;;;;;-149.78;58.63;49912.13;5085072;28;19916;-71
2022/06/16 07:02:44;;;;;;;;;;;;;;;-149.78;59.28;49986.44;5077927;28;19961;-71
2022/06/16 07:05:09;;;;;;;;;;;;;;;-149.78;55.84;49923.88;5082606;28;20542;-70
2022/06/16 07:07:36;;;;;;;;;;;;;;;-149.78;53.47;49951.25;5082909;28;19916;-72
2022/06/16 07:10:02;;;;;;;;;;;;;;;-149.78;52.96;49939.50;5080360;28;19924;-70
2022/06/16 07:12:30;;;;;;;;;;;;;;;-149.78;52.04;49927.78;5076645;28;20379;-70
2022/06/16 07:14:59;;;;;;;;;;;;;;;-149.78;47.42;49888.66;5078127;28;20014;-71
2022/06/16 07:17:24;;;;;;;;;;;;;;;-149.78;44.82;49853.47;5082549;28;19920;-71
2022/06/16 07:19:50;;;;;;;;;;;;;;;-149.78;43.15;49845.66;5081401;28;19923;-71
2022/06/16 07:22:16;;;;;;;;;;;;;;;-149.78;40.10;49849.56;5080461;28;20332;-71
2022/06/16 07:24:42;;;;;;;;;;;;;;;-149.78;39.29;49841.72;5079414;28;19966;-71
2022/06/16 07:27:08;;;;;;;;;;;;;;;-149.78;39.31;49810.44;5078079;28;19920;-71
2022/06/16 07:29:34;;;;;;;;;;;;;;;-149.78;37.38;49830.00;5081640;28;20351;-70
2022/06/16 07:31:59;;;;;;;;;;;;;;;-149.78;36.17;49767.44;5083506;28;20015;-71
2022/06/16 07:34:26;;;;;;;;;;;;;;;-149.78;35.74;49742.00;5084213;28;19969;-71
2022/06/16 07:36:51;;;;;;;;;;;;;;;-149.78;33.01;49712.69;5084769;28;19943;-71
2022/06/16 07:39:18;;;;;;;;;;;;;;;-149.78;33.50;49749.81;5082042;28;19974;-71
2022/06/16 07:41:43;;;;;;;;;;;;;;;-149.78;33.52;49720.50;5079901;28;19920;-71
2022/06/16 07:44:14;;;;;;;;;;;;;;;-149.78;33.86;49745.91;5071032;28;19927;-71
2022/06/16 07:46:42;;;;;;;;;;;;;;;-149.78;33.62;49700.94;5079874;28;19978;-71
2022/06/16 07:49:09;;;;;;;;;;;;;;;-149.78;32.55;49702.91;5072572;28;20389;-71
2022/06/16 07:51:35;;;;;;;;;;;;;;;-149.78;31.46;49710.72;5080357;28;19933;-71
2022/06/16 07:54:00;;;;;;;;;;;;;;;-149.78;31.83;49699.00;5075249;28;19923;-71
2022/06/16 07:56:26;;;;;;;;;;;;;;;-149.78;30.29;49697.03;5076865;28;19924;-71
2022/06/16 07:58:52;;;;;;;;;;;;;;;-149.78;30.08;49673.56;5080865;28;19931;-71
2022/06/16 08:01:18;;;;;;;;;;;;;;;-149.78;28.82;49657.94;5074756;28;19955;-71
2022/06/16 08:03:43;;;;;;;;;;;;;;;-149.78;28.97;49650.09;5073862;28;19962;-71
2022/06/16 08:06:10;;;;;;;;;;;;;;;-149.78;27.95;49607.09;5077708;28;19949;-72
2022/06/16 08:08:36;;;;;;;;;;;;;;;-149.78;28.36;49583.63;5094770;28;19916;-72
2022/06/16 08:11:02;;;;;;;;;;;;;;;-149.78;27.99;49618.81;5088661;28;19917;-72
2022/06/16 08:13:28;;;;;;;;;;;;;;;-149.78;28.25;49657.94;5076140;28;20019;-72
2022/06/16 08:15:53;;;;;;;;;;;;;;;-149.78;28.00;49626.63;5075099;28;20030;-72
2022/06/16 08:18:20;;;;;;;;;;;;;;;-149.78;27.55;49628.59;5086746;28;19924;-71
2022/06/16 08:20:45;;;;;;;;;;;;;;;-149.78;27.12;49607.09;5085047;28;20001;-71
2022/06/16 08:23:11;;;;;;;;;;;;;;;-149.78;28.65;49659.88;5089397;28;19955;-72
2022/06/16 08:25:37;;;;;;;;;;;;;;;-149.78;27.96;49591.44;5092317;28;19951;-72
2022/06/16 08:28:03;;;;;;;;;;;;;;;-149.78;26.75;49614.91;5076802;28;19923;-71
2022/06/16 08:30:29;;;;;;;;;;;;;;;-149.78;26.42;49585.56;5075029;28;19928;-72
2022/06/16 08:32:55;;;;;;;;;;;;;;;-149.78;26.75;49571.88;5076473;28;19917;-72
2022/06/16 08:35:21;;;;;;;;;;;;;;;-149.78;27.26;49638.38;5086320;28;19927;-72
2022/06/16 08:37:47;;;;;;;;;;;;;;;-149.78;26.96;49599.25;5084514;28;19920;-72
2022/06/16 08:40:13;;;;;;;;;;;;;;;-149.78;26.75;49644.25;5075618;28;19924;-71
2022/06/16 08:42:50;;;;;;;;;;;;;;;-149.78;26.50;49622.72;5084841;28;19927;-72
2022/06/16 08:45:30;;;;;;;;;;;;;;;-149.78;26.09;49607.09;5084574;28;19920;-71
2022/06/16 08:47:58;;;;;;;;;;;;;;;-149.78;27.00;49642.28;5081280;28;20389;-70
2022/06/16 08:50:33;;;;;;;;;;;;;;;-149.78;26.53;49575.81;5077996;28;19956;-71
2022/06/16 08:53:06;;;;;;;;;;;;;;;-149.78;25.94;49564.06;5086873;28;19924;-72
2022/06/16 08:55:31;;;;;;;;;;;;;;;-149.78;26.14;49599.25;5081441;28;19920;-72
2022/06/16 08:57:59;;;;;;;;;;;;;;;-149.78;25.31;49575.81;5080462;28;19924;-72
2022/06/16 09:00:48;;;;;;;;;;;;;;;-149.78;25.81;49593.41;5078999;28;19916;-72
2022/06/16 09:03:17;;;;;;;;;;;;;;;-149.78;25.24;49556.25;5054584;28;19909;-70
2022/06/16 09:05:45;;;;;;;;;;;;;;;-149.78;26.04;49552.34;5077491;28;19932;-70
2022/06/16 09:08:30;;;;;;;;;;;;;;;-149.78;25.36;49554.28;5074596;28;20009;-70
2022/06/16 09:10:56;;;;;;;;;;;;;;;-149.78;25.71;49583.63;5080466;28;19916;-72
2022/06/16 09:13:24;;;;;;;;;;;;;;;-149.78;25.29;49579.72;5084560;28;19924;-72
2022/06/16 09:16:08;;;;;;;;;;;;;;;-149.78;25.67;49591.44;5082797;28;19959;-72
2022/06/16 09:18:46;;;;;;;;;;;;;;;-149.78;27.13;49689.22;5080148;28;19916;-72
2022/06/16 09:21:27;;;;;;;;;;;;;;;-149.78;27.23;49650.09;5085330;28;19920;-72
2022/06/16 09:23:59;;;;;;;;;;;;;;;-149.78;26.54;49654.00;5104845;28;19916;-72
2022/06/16 09:26:30;;;;;;;;;;;;;;;-149.78;26.99;49618.81;5103857;28;20014;-72
2022/06/16 09:28:59;;;;;;;;;;;;;;;-149.78;27.34;49697.03;5105485;28;20393;-70
2022/06/16 09:31:28;;;;;;;;;;;;;;;-149.78;27.46;49716.59;5102477;28;19973;-70
2022/06/16 09:33:58;;;;;;;;;;;;;;;-149.78;27.80;49706.81;5103226;28;19954;-70
2022/06/16 09:36:28;;;;;;;;;;;;;;;-149.78;27.41;49681.38;5103871;28;20006;-72
2022/06/16 09:38:58;;;;;;;;;;;;;;;-149.78;26.87;49687.25;5105297;28;19950;-72
2022/06/16 09:44:24;;;;;;;;;;;;;;;-149.78;26.77;49673.56;5102808;28;20605;-70
2022/06/16 09:46:53;;;;;;;;;;;;;;;-149.78;26.67;49677.47;5101339;28;19959;-72
2022/06/16 09:49:22;;;;;;;;;;;;;;;-149.78;27.85;49771.34;5093451;28;19927;-71
2022/06/16 09:51:54;;;;;;;;;;;;;;;-149.78;30.30;49755.69;5082921;28;19917;-72
2022/06/16 09:54:25;;;;;;;;;;;;;;;-149.78;30.14;49771.34;5084843;28;19916;-72
2022/06/16 09:56:54;;;;;;;;;;;;;;;-149.78;29.41;49783.06;5081577;28;19925;-71
2022/06/16 09:59:28;;;;;;;;;;;;;;;-149.78;29.51;49751.78;5079182;28;19916;-71
2022/06/16 10:01:59;;;;;;;;;;;;;;;-149.78;30.12;49767.44;5081836;28;20417;-71
2022/06/16 10:04:25;;;;;;;;;;;;;;;-149.78;29.14;49773.28;5077362;28;20006;-71
2022/06/16 10:07:09;;;;;;;;;;;;;;;-149.78;30.93;49747.88;5074800;28;20339;-71
2022/06/16 10:09:40;;;;;;;;;;;;;;;-149.78;30.04;49710.72;5084477;28;19923;-71
2022/06/16 10:12:10;;;;;;;;;;;;;;;-149.78;31.00;49740.06;5078630;28;20245;-71
2022/06/16 10:14:38;;;;;;;;;;;;;;;-149.78;30.11;49704.84;5076977;28;19970;-71
2022/06/16 10:17:06;;;;;;;;;;;;;;;-149.78;30.47;49724.41;5081421;28;20002;-71
2022/06/16 10:19:34;;;;;;;;;;;;;;;-149.78;30.21;49685.31;5080113;28;19917;-71
2022/06/16 10:22:01;;;;;;;;;;;;;;;-149.78;30.17;49675.53;5084191;28;19923;-71
2022/06/16 10:24:47;;;;;;;;;;;;;;;-149.78;30.16;49704.84;5077591;28;20345;-71
2022/06/16 10:27:14;;;;;;;;;;;;;;;-149.78;31.03;49710.72;5065915;28;19916;-71
2022/06/16 10:29:50;;;;;;;;;;;;;;;-149.78;31.55;49714.63;5077289;28;19916;-72
2022/06/16 10:32:17;;;;;;;;;;;;;;;-149.78;30.85;49704.84;5080874;28;20375;-71
2022/06/16 10:34:42;;;;;;;;;;;;;;;-149.78;31.58;49708.75;5086437;28;20001;-71
2022/06/16 10:37:17;;;;;;;;;;;;;;;-149.78;29.98;49712.69;5072637;28;19924;-72
2022/06/16 10:39:47;;;;;;;;;;;;;;;-149.78;30.00;49699.00;5076714;28;19923;-72
2022/06/16 10:42:15;;;;;;;;;;;;;;;-149.78;29.85;49716.59;5083938;28;19916;-72
2022/06/16 10:44:45;;;;;;;;;;;;;;;-149.78;31.12;49697.03;5078867;28;19920;-71
2022/06/16 10:47:16;;;;;;;;;;;;;;;-149.78;30.23;49716.59;5079666;28;19916;-71
2022/06/16 10:49:44;;;;;;;;;;;;;;;-149.78;29.80;49679.44;5084987;28;20383;-71
2022/06/16 10:52:14;;;;;;;;;;;;;;;-149.78;30.27;49681.38;5087833;28;20279;-72
2022/06/16 10:54:45;;;;;;;;;;;;;;;-149.78;30.63;49720.50;5079991;28;19916;-72
2022/06/16 10:57:22;;;;;;;;;;;;;;;-149.78;29.94;49689.22;5078536;28;19928;-72
2022/06/16 11:00:02;;;;;;;;;;;;;;;-149.78;29.40;49710.72;5078980;28;19916;-72
2022/06/16 11:02:30;;;;;;;;;;;;;;;-149.78;29.64;49720.50;5082696;28;20371;-72
2022/06/16 11:04:58;;;;;;;;;;;;;;;-149.78;30.36;49730.28;5077277;28;19921;-72
2022/06/16 11:07:24;;;;;;;;;;;;;;;-149.78;30.11;49724.41;5074433;28;21195;-72
2022/06/16 11:09:51;;;;;;;;;;;;;;;-149.78;30.66;49724.41;5082590;28;19924;-72
2022/06/16 11:12:19;;;;;;;;;;;;;;;-149.78;31.29;49704.84;5076493;28;19920;-71
2022/06/16 11:14:47;;;;;;;;;;;;;;;-149.78;30.07;49740.06;5077357;28;20411;-72
2022/06/16 11:17:22;;;;;;;;;;;;;;;-149.78;31.02;49732.22;5073428;28;19923;-72
2022/06/16 11:19:59;;;;;;;;;;;;;;;-149.78;30.19;49708.75;5085505;28;19916;-72
2022/06/16 11:22:28;;;;;;;;;;;;;;;-149.78;29.84;49665.75;5077691;28;19916;-72
2022/06/16 11:24:56;;;;;;;;;;;;;;;-149.78;29.80;49681.38;5076868;28;20295;-72
2022/06/16 11:27:22;;;;;;;;;;;;;;;-149.78;29.79;49730.28;5078072;28;19957;-72
2022/06/16 11:29:48;;;;;;;;;;;;;;;-149.78;30.37;49712.69;5072684;28;20380;-72
2022/06/16 11:32:19;;;;;;;;;;;;;;;-149.78;29.95;49685.31;5075118;28;19923;-72
2022/06/16 11:34:45;;;;;;;;;;;;;;;-149.78;31.55;49724.41;5087974;28;19956;-72
2022/06/16 11:37:23;;;;;;;;;;;;;;;-149.78;30.90;49708.75;5073066;28;19916;-72
2022/06/16 11:40:07;;;;;;;;;;;;;;;-149.78;30.35;49706.81;5077370;28;20298;-72
2022/06/16 11:42:35;;;;;;;;;;;;;;;-149.78;30.80;49728.31;5091074;28;19916;-72
2022/06/16 11:45:13;;;;;;;;;;;;;;;-149.78;29.93;49669.66;5092494;28;19966;-72
2022/06/16 11:47:45;;;;;;;;;;;;;;;-149.78;29.89;49677.47;5085596;28;19931;-72
2022/06/16 11:50:21;;;;;;;;;;;;;;;-149.78;30.32;49669.66;5102352;28;19959;-72
2022/06/16 11:52:47;;;;;;;;;;;;;;;-149.78;31.39;49673.56;5086408;28;19939;-72
2022/06/16 11:55:31;;;;;;;;;;;;;;;-149.78;31.00;49712.69;5076790;28;20380;-72
2022/06/16 11:58:26;;;;;;;;;;;;;;;-149.78;30.74;49728.31;5084169;28;19916;-72
2022/06/16 12:01:10;;;;;;;;;;;;;;;-149.78;31.49;49710.72;5068572;28;19924;-72
2022/06/16 12:03:41;;;;;;;;;;;;;;;-149.78;33.12;49679.44;5080388;28;20324;-72
2022/06/16 12:06:07;;;;;;;;;;;;;;;-149.78;32.39;49724.41;5088572;28;19924;-73
2022/06/16 12:08:33;;;;;;;;;;;;;;;-149.78;32.95;49728.31;5077996;28;19916;-72
2022/06/16 12:10:58;;;;;;;;;;;;;;;-149.78;32.66;49685.31;5085866;28;20398;-72
2022/06/16 12:13:27;;;;;;;;;;;;;;;-149.78;32.17;49720.50;5076791;28;19920;-72
2022/06/16 12:15:52;;;;;;;;;;;;;;;-149.78;32.13;49732.22;5088717;28;19966;-71
2022/06/16 12:18:21;;;;;;;;;;;;;;;-149.78;31.94;49685.31;5079857;28;19920;-71
2022/06/16 12:42:25;;;;;;;;;;;;;;;-149.78;32.57;49732.22;5082110;28;19973;-71
2022/06/16 12:44:54;;;;;;;;;;;;;;;-149.78;31.10;49716.59;5068382;28;20284;-71
2022/06/16 12:47:25;;;;;;;;;;;;;;;-149.78;33.29;49736.13;5087230;28;19962;-71
2022/06/16 12:49:51;;;;;;;;;;;;;;;-149.78;32.30;49724.41;5078602;28;19950;-71
2022/06/16 12:52:20;;;;;;;;;;;;;;;-149.78;32.20;49742.00;5083698;28;19916;-71
2022/06/16 12:54:45;;;;;;;;;;;;;;;-149.78;32.65;49700.94;5088754;28;19916;-72
2022/06/16 12:57:13;;;;;;;;;;;;;;;-149.78;32.96;49732.22;5086063;28;19950;-72
2022/06/16 12:59:45;;;;;;;;;;;;;;;-149.78;32.80;49720.50;5081803;28;19967;-72
2022/06/16 13:02:14;;;;;;;;;;;;;;;-149.78;32.85;49749.81;5079800;28;19920;-71
2022/06/16 13:04:41;;;;;;;;;;;;;;;-149.78;33.08;49728.31;5077435;28;19952;-72
2022/06/16 13:07:14;;;;;;;;;;;;;;;-149.78;33.91;49738.09;5083625;28;20343;-71
2022/06/16 13:09:41;;;;;;;;;;;;;;;-149.78;32.71;49708.75;5090892;28;19916;-72
2022/06/16 13:12:13;;;;;;;;;;;;;;;-149.78;33.77;49724.41;5088576;28;20271;-73